Time;durP1;ratioP1;P1;durP2;ratioP2;P2;SDS_P1;SDS_P2;PMS_P1;PMS_P2;Temp;Humidity;BMP_temperature;BMP_pressure;BME280_temperature;BME280_humidity;BME280_pressure;Samples;Min_cycle;Max_cycle;Signal;HPM_P1;HPM_P2
2023/06/01 00:02:25;;;;;;;6.97;3.67;;;17.80;78.50;;;;;;6066853;23;20712;-78
2023/06/01 00:04:53;;;;;;;4.88;3.42;;;17.90;75.50;;;;;;6065976;23;20708;-78
2023/06/01 00:07:20;;;;;;;3.95;3.15;;;17.90;74.30;;;;;;6092064;23;20374;-78
2023/06/01 00:09:48;;;;;;;5.43;3.00;;;18.00;74.70;;;;;;6065575;23;20472;-78
2023/06/01 00:12:15;;;;;;;4.45;3.20;;;18.00;73.80;;;;;;6067208;23;20762;-79
2023/06/01 00:14:42;;;;;;;3.42;2.65;;;18.10;72.90;;;;;;6065820;23;20456;-78
2023/06/01 00:17:09;;;;;;;3.83;3.00;;;18.10;73.20;;;;;;6066883;23;20385;-78
2023/06/01 00:19:38;;;;;;;4.63;3.13;;;18.10;73.90;;;;;;6065196;23;20456;-78
2023/06/01 00:22:07;;;;;;;3.92;2.72;;;18.10;74.20;;;;;;6066706;23;20391;-78
2023/06/01 00:24:34;;;;;;;5.03;3.25;;;18.00;75.70;;;;;;6066015;23;20389;-78
2023/06/01 00:27:01;;;;;;;4.18;3.20;;;18.00;75.50;;;;;;6066491;23;20405;-78
2023/06/01 00:29:29;;;;;;;4.68;2.97;;;18.00;74.50;;;;;;6066657;23;20382;-79
2023/06/01 00:31:56;;;;;;;4.18;3.10;;;18.10;73.40;;;;;;6065441;23;20377;-78
2023/06/01 00:34:23;;;;;;;4.70;3.10;;;18.00;73.40;;;;;;6067157;23;20392;-78
2023/06/01 00:36:50;;;;;;;3.60;3.03;;;18.10;72.10;;;;;;6065143;23;20492;-78
2023/06/01 00:39:17;;;;;;;4.45;2.97;;;18.10;72.30;;;;;;6066398;23;20393;-79
2023/06/01 00:41:44;;;;;;;4.53;3.28;;;18.10;73.30;;;;;;6064737;23;20389;-78
2023/06/01 00:44:11;;;;;;;5.18;3.30;;;18.10;72.10;;;;;;6066190;23;20432;-78
2023/06/01 00:46:38;;;;;;;3.67;3.08;;;18.10;71.60;;;;;;6064636;23;20390;-79
2023/06/01 00:49:06;;;;;;;5.60;3.22;;;18.10;72.80;;;;;;6066892;23;20381;-78
2023/06/01 00:51:35;;;;;;;5.63;3.42;;;18.10;73.60;;;;;;6065288;23;20894;-79
2023/06/01 00:54:02;;;;;;;5.07;3.25;;;18.10;74.90;;;;;;6066247;23;20848;-79
2023/06/01 00:56:31;;;;;;;4.43;3.40;;;18.10;74.40;;;;;;6065817;23;20397;-81
2023/06/01 00:58:59;;;;;;;4.45;2.95;;;18.00;74.50;;;;;;6065445;23;20369;-79
2023/06/01 01:33:09;;;;;;;4.55;3.25;;;18.10;70.10;;;;;;6089431;23;20423;-82
2023/06/01 01:35:36;;;;;;;3.75;3.20;;;18.10;71.30;;;;;;6065270;23;20468;-82
2023/06/01 01:38:03;;;;;;;3.75;3.22;;;18.20;70.30;;;;;;6066491;23;20389;-81
2023/06/01 01:40:30;;;;;;;4.90;2.95;;;18.20;69.00;;;;;;6066312;23;20393;-81
2023/06/01 01:42:58;;;;;;;4.90;3.22;;;18.20;68.80;;;;;;6065664;23;20374;-82
2023/06/01 01:45:25;;;;;;;3.25;2.70;;;18.30;68.30;;;;;;6066664;23;20432;-81
2023/06/01 01:48:05;;;;;;;4.53;3.45;;;18.30;68.60;;;;;;6065683;23;20373;-82
2023/06/01 01:50:55;;;;;;;3.78;2.78;;;18.20;69.60;;;;;;6066983;23;20440;-82
2023/06/01 01:53:24;;;;;;;4.85;2.75;;;18.20;69.40;;;;;;6066295;23;20389;-82
2023/06/01 01:55:52;;;;;;;3.92;2.70;;;18.20;69.40;;;;;;6066666;23;20388;-81
2023/06/01 01:58:20;;;;;;;4.57;3.00;;;18.20;70.30;;;;;;6066486;23;20425;-81
2023/06/01 02:00:47;;;;;;;4.20;3.10;;;18.20;69.30;;;;;;6061617;23;20394;-80
2023/06/01 02:03:16;;;;;;;4.72;2.90;;;18.20;69.10;;;;;;6061720;23;20386;-82
2023/06/01 02:05:43;;;;;;;3.63;2.60;;;18.20;70.40;;;;;;6038094;23;20467;-82
2023/06/01 02:08:11;;;;;;;3.35;3.00;;;18.10;70.30;;;;;;6036366;23;20454;-81
2023/06/01 02:10:37;;;;;;;5.03;3.00;;;18.10;70.30;;;;;;6063507;23;20409;-82
2023/06/01 02:13:04;;;;;;;3.53;2.93;;;18.10;69.40;;;;;;6062556;23;20387;-81
2023/06/01 02:15:31;;;;;;;5.60;3.15;;;18.10;70.10;;;;;;6061867;23;20378;-82
2023/06/01 02:17:59;;;;;;;7.75;3.10;;;18.10;70.10;;;;;;6062177;23;20379;-81
2023/06/01 02:20:26;;;;;;;4.95;3.17;;;18.10;69.70;;;;;;6061460;23;20375;-83
2023/06/01 02:22:55;;;;;;;4.60;2.85;;;18.00;70.70;;;;;;6061185;23;22552;-83
2023/06/01 02:25:22;;;;;;;5.38;2.78;;;18.00;70.80;;;;;;6061084;23;20691;-84
2023/06/01 02:27:48;;;;;;;4.60;2.97;;;17.90;71.50;;;;;;6038166;23;20766;-84
2023/06/01 02:30:16;;;;;;;4.00;3.35;;;17.90;72.30;;;;;;6061693;23;20687;-81
2023/06/01 02:32:45;;;;;;;5.45;3.15;;;17.80;72.80;;;;;;6062026;23;20450;-84
2023/06/01 02:35:12;;;;;;;4.40;2.97;;;17.80;72.70;;;;;;6062171;23;20462;-83
2023/06/01 02:37:39;;;;;;;4.47;3.30;;;17.80;72.50;;;;;;6061650;23;20803;-82
2023/06/01 02:40:10;;;;;;;3.75;3.00;;;17.80;72.20;;;;;;6061258;23;20458;-83
2023/06/01 02:42:38;;;;;;;4.18;2.83;;;17.70;73.10;;;;;;6038338;23;20425;-83
2023/06/01 02:45:07;;;;;;;3.95;2.90;;;17.70;73.10;;;;;;6037268;23;20393;-82
2023/06/01 02:47:34;;;;;;;4.65;2.72;;;17.60;73.10;;;;;;6038873;23;20753;-82
2023/06/01 02:50:01;;;;;;;4.95;3.38;;;17.60;71.40;;;;;;6062260;23;20398;-81
2023/06/01 02:52:28;;;;;;;4.70;3.40;;;17.70;71.10;;;;;;6061199;23;20385;-85
2023/06/01 02:54:54;;;;;;;4.93;2.95;;;17.70;71.50;;;;;;6062047;23;20394;-83
2023/06/01 02:57:21;;;;;;;4.53;3.25;;;17.60;72.20;;;;;;6061420;23;20394;-79
2023/06/01 02:59:48;;;;;;;4.80;3.10;;;17.60;72.20;;;;;;6061986;23;20379;-80
2023/06/01 03:02:15;;;;;;;7.78;3.30;;;17.60;72.80;;;;;;6060581;23;20454;-80
2023/06/01 03:04:43;;;;;;;3.45;2.78;;;17.60;72.70;;;;;;6061808;23;20768;-80
2023/06/01 03:07:10;;;;;;;8.05;2.85;;;17.50;73.40;;;;;;6062308;23;20793;-80
2023/06/01 03:09:37;;;;;;;4.00;2.67;;;17.50;73.90;;;;;;6063591;23;20872;-79
2023/06/01 03:12:04;;;;;;;4.00;3.17;;;17.50;73.40;;;;;;6040190;23;20383;-80
2023/06/01 03:14:31;;;;;;;4.95;3.10;;;17.50;74.10;;;;;;6038506;23;20387;-77
2023/06/01 03:16:58;;;;;;;4.57;2.90;;;17.50;75.20;;;;;;6063638;23;20382;-80
2023/06/01 03:19:24;;;;;;;3.58;2.80;;;17.40;74.80;;;;;;6062563;23;20469;-79
2023/06/01 03:21:51;;;;;;;5.03;2.97;;;17.40;75.00;;;;;;6039988;23;20382;-80
2023/06/01 03:24:18;;;;;;;4.40;3.03;;;17.30;75.30;;;;;;6038968;23;20393;-80
2023/06/01 03:26:45;;;;;;;6.65;3.60;;;17.30;75.00;;;;;;6063473;23;20394;-78
2023/06/01 03:29:12;;;;;;;8.38;3.65;;;17.30;75.90;;;;;;6038978;23;20438;-78
2023/06/01 03:31:39;;;;;;;4.10;2.95;;;17.30;76.90;;;;;;6039730;23;20386;-77
2023/06/01 03:34:06;;;;;;;4.75;3.10;;;17.20;76.70;;;;;;6039647;23;20390;-79
2023/06/01 03:36:35;;;;;;;4.38;3.20;;;17.20;77.30;;;;;;6063179;23;20379;-79
2023/06/01 03:39:07;;;;;;;4.53;3.28;;;17.10;78.60;;;;;;6063312;23;20406;-78
2023/06/01 03:41:35;;;;;;;3.50;3.20;;;17.10;77.30;;;;;;6038890;23;20405;-80
2023/06/01 03:44:03;;;;;;;4.35;3.38;;;17.10;77.30;;;;;;6062993;23;20423;-78
2023/06/01 03:46:30;;;;;;;4.22;3.25;;;17.10;77.20;;;;;;6062640;23;20670;-78
2023/06/01 03:48:57;;;;;;;4.90;3.13;;;17.00;77.20;;;;;;6063650;23;20450;-78
2023/06/01 03:51:24;;;;;;;3.85;3.25;;;17.00;76.90;;;;;;6062054;23;20406;-79
2023/06/01 03:53:51;;;;;;;5.45;3.38;;;17.10;77.60;;;;;;6064340;23;20379;-78
2023/06/01 03:56:19;;;;;;;4.75;3.58;;;17.00;77.30;;;;;;6062403;23;20383;-80
2023/06/01 03:58:46;;;;;;;5.20;3.10;;;17.10;75.90;;;;;;6063547;23;20734;-79
2023/06/01 04:01:16;;;;;;;6.55;3.10;;;17.10;76.30;;;;;;6062143;23;20395;-78
2023/06/01 04:03:44;;;;;;;4.53;3.10;;;17.10;77.60;;;;;;6063675;23;20413;-79
2023/06/01 04:06:17;;;;;;;5.33;2.97;;;17.10;78.30;;;;;;6064387;23;20713;-79
2023/06/01 04:08:55;;;;;;;4.53;3.10;;;17.00;79.10;;;;;;6062838;23;20386;-79
2023/06/01 04:11:22;;;;;;;4.35;2.88;;;16.90;78.70;;;;;;6062399;23;20393;-79
2023/06/01 04:13:49;;;;;;;4.28;2.60;;;17.00;78.60;;;;;;6039813;23;20379;-79
2023/06/01 04:16:16;;;;;;;3.95;2.83;;;16.90;78.60;;;;;;6062839;23;20383;-80
2023/06/01 04:18:43;;;;;;;5.53;3.00;;;16.90;78.50;;;;;;6063799;23;20695;-79
2023/06/01 04:21:10;;;;;;;5.07;3.20;;;17.00;78.90;;;;;;6063197;23;20399;-79
2023/06/01 04:23:37;;;;;;;4.78;2.80;;;17.00;78.70;;;;;;6061919;23;20412;-78
2023/06/01 04:26:04;;;;;;;4.30;2.83;;;17.00;77.80;;;;;;6062935;23;20414;-80
2023/06/01 04:28:32;;;;;;;4.18;2.90;;;17.00;77.60;;;;;;6063882;23;20410;-79
2023/06/01 04:31:02;;;;;;;4.75;2.70;;;17.00;78.60;;;;;;6063893;23;20767;-79
2023/06/01 04:33:29;;;;;;;4.65;3.10;;;17.00;78.50;;;;;;6039296;23;20717;-79
2023/06/01 04:35:56;;;;;;;4.38;2.90;;;17.00;78.60;;;;;;6065243;23;20765;-79
2023/06/01 04:38:24;;;;;;;6.20;3.33;;;17.00;78.00;;;;;;6067349;23;20379;-79
2023/06/01 04:40:53;;;;;;;4.93;3.30;;;17.10;78.10;;;;;;6065634;23;20384;-80
2023/06/01 04:43:20;;;;;;;4.00;2.80;;;17.10;78.50;;;;;;6064785;23;20464;-79
2023/06/01 04:45:47;;;;;;;4.68;3.33;;;17.10;78.70;;;;;;6062257;23;20855;-79
2023/06/01 04:48:16;;;;;;;3.95;3.08;;;17.10;77.50;;;;;;6063253;23;20379;-79
2023/06/01 04:50:44;;;;;;;4.93;3.15;;;17.10;76.60;;;;;;6062430;23;20391;-80
2023/06/01 04:53:11;;;;;;;4.18;2.85;;;17.20;77.00;;;;;;6064416;23;20386;-80
2023/06/01 04:55:38;;;;;;;7.28;3.55;;;17.20;77.90;;;;;;6066234;23;20383;-79
2023/06/01 04:58:06;;;;;;;7.20;3.53;;;17.20;77.80;;;;;;6065709;23;20442;-78
2023/06/01 05:00:33;;;;;;;4.07;3.30;;;17.20;78.40;;;;;;6043200;23;20849;-79
2023/06/01 05:03:02;;;;;;;5.00;3.20;;;17.20;78.50;;;;;;6065680;23;20424;-80
2023/06/01 05:05:29;;;;;;;6.68;3.10;;;17.20;78.30;;;;;;6065587;23;20387;-80
2023/06/01 05:07:56;;;;;;;3.67;3.10;;;17.20;78.50;;;;;;6066476;23;20390;-80
2023/06/01 05:10:23;;;;;;;6.63;3.30;;;17.20;78.30;;;;;;6066311;23;20857;-80
2023/06/01 05:12:50;;;;;;;4.25;3.13;;;17.20;79.60;;;;;;6063125;23;20375;-80
2023/06/01 05:15:17;;;;;;;5.15;2.85;;;17.20;78.90;;;;;;6063696;23;20386;-79
2023/06/01 05:17:44;;;;;;;3.83;2.78;;;17.20;80.60;;;;;;6063283;23;20387;-80
2023/06/01 05:20:13;;;;;;;5.40;3.20;;;17.20;80.50;;;;;;6040060;23;20387;-80
2023/06/01 05:22:40;;;;;;;6.72;2.95;;;17.30;77.20;;;;;;6061682;23;20446;-81
2023/06/01 05:25:07;;;;;;;4.18;2.72;;;17.30;76.90;;;;;;6064102;23;20383;-80
2023/06/01 05:27:35;;;;;;;5.18;2.78;;;17.30;77.40;;;;;;6038142;23;20383;-80
2023/06/01 05:30:02;;;;;;;5.63;2.97;;;17.30;78.40;;;;;;6038496;23;20383;-78
2023/06/01 05:32:29;;;;;;;4.43;2.77;;;17.40;77.00;;;;;;6037026;23;20455;-78
2023/06/01 05:34:56;;;;;;;4.57;2.85;;;17.40;77.20;;;;;;6062307;23;20717;-79
2023/06/01 05:37:23;;;;;;;4.22;2.90;;;17.40;76.70;;;;;;6038726;23;20450;-79
2023/06/01 05:39:50;;;;;;;3.95;3.03;;;17.50;76.70;;;;;;6037728;23;20387;-79
2023/06/01 05:42:17;;;;;;;5.68;3.60;;;17.50;76.50;;;;;;6038326;23;20387;-80
2023/06/01 05:44:44;;;;;;;5.25;3.47;;;17.50;77.00;;;;;;6062159;23;20713;-80
2023/06/01 05:47:11;;;;;;;4.82;3.20;;;17.60;76.30;;;;;;6062503;23;20394;-79
2023/06/01 05:49:38;;;;;;;4.60;2.72;;;17.50;76.80;;;;;;6061635;23;20391;-80
2023/06/01 05:52:05;;;;;;;4.75;3.33;;;17.60;75.90;;;;;;6037973;23;20386;-80
2023/06/01 05:54:32;;;;;;;4.53;3.20;;;17.60;76.90;;;;;;6060909;23;20379;-80
2023/06/01 05:57:00;;;;;;;3.95;2.90;;;17.60;77.80;;;;;;6038478;23;20387;-80
2023/06/01 05:59:27;;;;;;;4.28;3.13;;;17.70;77.30;;;;;;6061596;23;20390;-79
2023/06/01 06:01:54;;;;;;;4.60;3.17;;;17.70;75.80;;;;;;6061169;23;20386;-79
2023/06/01 06:04:21;;;;;;;4.65;3.17;;;17.70;77.40;;;;;;6062039;23;20387;-79
2023/06/01 06:06:48;;;;;;;4.47;2.90;;;17.80;75.90;;;;;;6062972;23;21024;-80
2023/06/01 06:09:15;;;;;;;3.60;3.20;;;17.90;77.00;;;;;;6062776;23;20383;-79
2023/06/01 06:11:43;;;;;;;4.28;2.97;;;17.90;75.80;;;;;;6062465;23;20453;-79
2023/06/01 06:14:11;;;;;;;4.78;3.55;;;18.00;75.40;;;;;;6062194;23;20793;-79
2023/06/01 06:16:39;;;;;;;5.95;2.88;;;18.10;75.70;;;;;;6062260;23;20790;-79
2023/06/01 06:19:06;;;;;;;3.55;2.90;;;18.10;74.80;;;;;;6041391;23;20458;-81
2023/06/01 06:21:33;;;;;;;4.97;3.10;;;18.20;73.10;;;;;;6062049;23;20379;-80
2023/06/01 06:24:00;;;;;;;4.57;2.88;;;18.20;73.00;;;;;;6063612;23;20375;-80
2023/06/01 06:26:27;;;;;;;3.83;2.80;;;18.40;72.70;;;;;;6061829;23;20434;-81
2023/06/01 06:28:55;;;;;;;5.32;3.25;;;18.40;72.40;;;;;;6060787;23;20378;-81
2023/06/01 06:31:22;;;;;;;4.30;3.05;;;18.40;71.90;;;;;;6058799;23;20383;-81
2023/06/01 06:33:49;;;;;;;4.35;2.88;;;18.50;73.60;;;;;;6052099;23;20383;-81
2023/06/01 06:36:16;;;;;;;4.43;3.28;;;18.50;72.20;;;;;;6061392;23;20405;-81
2023/06/01 06:38:44;;;;;;;2.88;2.58;;;18.50;72.50;;;;;;6058344;23;20382;-81
2023/06/01 06:41:11;;;;;;;4.32;3.08;;;18.60;72.20;;;;;;6037821;23;20383;-81
2023/06/01 06:43:38;;;;;;;3.73;2.63;;;18.70;71.80;;;;;;6060714;23;20391;-81
2023/06/01 06:46:05;;;;;;;4.50;2.80;;;18.80;71.50;;;;;;6060641;23;20686;-81
2023/06/01 06:48:32;;;;;;;4.32;2.65;;;18.80;71.80;;;;;;6062179;23;20824;-80
2023/06/01 06:50:59;;;;;;;4.05;3.40;;;18.90;69.80;;;;;;6060548;23;20375;-81
2023/06/01 06:53:26;;;;;;;3.88;3.20;;;19.00;68.30;;;;;;6061385;23;20383;-82
2023/06/01 06:55:54;;;;;;;5.03;2.90;;;19.00;69.80;;;;;;6060834;23;20888;-81
2023/06/01 06:58:20;;;;;;;5.40;3.03;;;19.10;69.90;;;;;;6061415;23;20395;-80
2023/06/01 07:00:47;;;;;;;3.97;2.70;;;19.20;71.20;;;;;;6060023;23;20388;-80
2023/06/01 07:03:14;;;;;;;4.43;3.13;;;19.30;70.30;;;;;;6061379;23;20387;-80
2023/06/01 07:05:42;;;;;;;4.57;3.10;;;19.40;67.80;;;;;;6062300;23;20458;-80
2023/06/01 07:08:08;;;;;;;3.35;2.72;;;19.50;67.50;;;;;;6061305;23;20387;-79
2023/06/01 07:10:35;;;;;;;3.63;2.60;;;19.60;67.80;;;;;;6060784;23;20383;-80
2023/06/01 07:13:02;;;;;;;3.63;2.77;;;19.70;67.80;;;;;;6061535;23;20439;-81
2023/06/01 07:15:29;;;;;;;4.77;2.80;;;19.70;65.00;;;;;;6062201;23;20389;-80
2023/06/01 07:17:56;;;;;;;3.37;2.60;;;19.80;62.90;;;;;;6060556;23;20376;-80
2023/06/01 07:20:23;;;;;;;5.07;3.05;;;20.00;64.50;;;;;;6062543;23;20389;-80
2023/06/01 07:22:50;;;;;;;3.97;2.90;;;20.10;65.00;;;;;;6060492;23;20383;-81
2023/06/01 07:25:17;;;;;;;4.72;2.85;;;20.20;65.70;;;;;;6061374;23;20379;-81
2023/06/01 07:27:47;;;;;;;3.87;2.70;;;20.40;67.70;;;;;;6060199;23;20393;-81
2023/06/01 07:30:15;;;;;;;3.38;2.65;;;20.60;65.70;;;;;;6038413;23;20379;-81
2023/06/01 07:32:42;;;;;;;4.10;2.60;;;20.80;63.40;;;;;;6036290;23;20386;-80
2023/06/01 07:35:10;;;;;;;5.22;2.70;;;21.00;62.70;;;;;;6038370;23;20379;-81
2023/06/01 07:37:37;;;;;;;4.28;2.80;;;21.10;58.50;;;;;;6061071;23;20462;-80
2023/06/01 07:40:06;;;;;;;4.38;2.28;;;21.30;59.60;;;;;;6062536;23;20379;-80
2023/06/01 07:42:34;;;;;;;4.13;2.80;;;21.50;61.00;;;;;;6037245;23;20395;-80
2023/06/01 07:45:02;;;;;;;3.47;3.07;;;21.60;60.60;;;;;;6060563;23;20379;-80
2023/06/01 07:47:29;;;;;;;3.60;2.33;;;21.80;57.10;;;;;;6061761;23;20411;-80
2023/06/01 07:49:57;;;;;;;4.47;2.78;;;21.90;55.20;;;;;;6060475;23;20770;-81
2023/06/01 07:52:26;;;;;;;2.95;2.53;;;21.90;55.80;;;;;;6062045;23;20391;-80
2023/06/01 07:54:53;;;;;;;5.13;3.13;;;22.10;56.50;;;;;;6061488;23;20379;-80
2023/06/01 07:57:20;;;;;;;2.72;2.53;;;22.20;56.20;;;;;;6063289;23;20750;-80
2023/06/01 07:59:47;;;;;;;3.38;2.47;;;22.30;56.30;;;;;;6061848;23;20438;-80
2023/06/01 08:02:14;;;;;;;4.00;2.60;;;22.60;56.10;;;;;;6061574;23;20438;-80
2023/06/01 08:04:41;;;;;;;5.13;2.90;;;22.80;57.50;;;;;;6062169;23;20387;-81
2023/06/01 08:07:09;;;;;;;5.97;3.03;;;23.10;54.70;;;;;;6062860;23;20543;-81
2023/06/01 08:09:37;;;;;;;4.18;3.25;;;23.10;54.80;;;;;;6062401;23;20379;-80
2023/06/01 08:12:05;;;;;;;6.22;4.80;;;23.30;56.10;;;;;;6038422;23;20386;-81
2023/06/01 08:14:33;;;;;;;6.07;4.53;;;23.40;55.00;;;;;;6038727;23;20438;-81
2023/06/01 08:17:02;;;;;;;4.35;3.72;;;23.40;54.80;;;;;;6061546;23;20782;-81
2023/06/01 08:19:29;;;;;;;6.60;4.65;;;23.40;55.50;;;;;;6063561;23;20413;-80
2023/06/01 08:21:57;;;;;;;5.68;4.85;;;23.50;57.30;;;;;;6062654;23;20383;-80
2023/06/01 08:24:24;;;;;;;5.85;4.47;;;23.70;56.80;;;;;;6062704;23;20402;-80
2023/06/01 08:26:58;;;;;;;7.35;5.20;;;23.70;56.80;;;;;;6038436;23;20450;-81
2023/06/01 08:29:25;;;;;;;5.15;4.47;;;23.80;55.40;;;;;;6038745;23;20466;-80
2023/06/01 08:32:09;;;;;;;5.23;4.60;;;24.00;56.50;;;;;;6060569;23;20398;-80
2023/06/01 08:34:36;;;;;;;5.10;4.60;;;24.10;52.50;;;;;;6038653;23;20391;-80
2023/06/01 08:37:03;;;;;;;5.10;4.60;;;24.10;52.10;;;;;;6038115;23;20746;-80
2023/06/01 08:39:30;;;;;;;7.43;5.30;;;24.10;53.20;;;;;;6038758;23;20379;-80
2023/06/01 08:42:34;;;;;;;5.53;4.53;;;24.20;53.70;;;;;;6061444;23;20394;-80
2023/06/01 08:45:05;;;;;;;5.38;4.30;;;24.30;53.50;;;;;;6037891;23;20379;-79
2023/06/01 08:47:32;;;;;;;6.32;4.93;;;24.60;54.40;;;;;;6038711;23;20383;-80
2023/06/01 08:49:59;;;;;;;6.20;5.03;;;24.70;53.00;;;;;;6037459;23;20375;-79
2023/06/01 08:52:31;;;;;;;5.60;4.35;;;24.70;51.90;;;;;;6062233;23;20403;-80
2023/06/01 08:55:00;;;;;;;5.82;4.40;;;24.70;52.00;;;;;;6037445;23;20717;-80
2023/06/01 08:57:28;;;;;;;6.45;4.88;;;24.80;51.50;;;;;;6063670;23;20384;-80
2023/06/01 08:59:56;;;;;;;5.38;4.82;;;24.90;51.70;;;;;;6037141;23;20378;-80
2023/06/01 09:02:23;;;;;;;6.90;5.75;;;24.90;51.20;;;;;;6037733;23;20710;-78
2023/06/01 09:04:52;;;;;;;9.50;6.63;;;24.90;51.20;;;;;;6036999;23;20375;-80
2023/06/01 09:07:20;;;;;;;6.43;5.82;;;24.90;50.90;;;;;;6039136;23;20853;-79
2023/06/01 09:09:47;;;;;;;6.53;5.60;;;24.70;50.40;;;;;;6037409;23;20375;-80
2023/06/01 09:12:21;;;;;;;8.88;5.57;;;24.80;53.80;;;;;;6038711;23;20744;-80
2023/06/01 09:14:48;;;;;;;7.72;5.50;;;24.90;53.00;;;;;;6037832;23;20676;-79
2023/06/01 09:17:22;;;;;;;7.20;5.45;;;25.00;52.80;;;;;;6061947;23;20740;-80
2023/06/01 09:19:56;;;;;;;7.00;5.25;;;25.20;52.10;;;;;;6037549;23;20379;-81
2023/06/01 09:22:22;;;;;;;7.72;6.28;;;25.50;52.00;;;;;;6063159;23;20441;-80
2023/06/01 09:24:57;;;;;;;6.97;5.85;;;25.70;51.20;;;;;;6061462;23;20709;-80
2023/06/01 09:27:25;;;;;;;12.57;7.72;;;25.70;49.30;;;;;;6035383;23;20707;-80
2023/06/01 09:29:59;;;;;;;9.25;7.78;;;25.60;48.30;;;;;;6037737;23;20387;-78
2023/06/01 09:32:26;;;;;;;8.55;6.65;;;25.40;49.10;;;;;;6035112;23;20393;-79
2023/06/01 09:34:55;;;;;;;7.83;6.77;;;25.40;51.30;;;;;;6062556;23;20383;-80
2023/06/01 09:37:22;;;;;;;7.77;6.93;;;25.50;51.30;;;;;;6037364;23;20434;-80
2023/06/01 09:39:51;;;;;;;9.73;7.45;;;25.50;49.90;;;;;;6060851;23;20406;-80
2023/06/01 09:42:30;;;;;;;11.45;8.23;;;25.60;51.60;;;;;;6061268;23;20738;-80
2023/06/01 09:45:18;;;;;;;9.73;7.65;;;25.60;50.20;;;;;;6037008;23;20374;-81
2023/06/01 09:47:45;;;;;;;10.17;7.67;;;25.80;50.30;;;;;;6038812;23;20387;-80
2023/06/01 09:50:35;;;;;;;8.38;7.40;;;26.00;50.60;;;;;;6061792;23;20414;-80
2023/06/01 09:53:04;;;;;;;8.35;7.35;;;26.10;49.50;;;;;;6037046;23;20405;-80
2023/06/01 09:55:31;;;;;;;11.43;8.40;;;26.20;49.30;;;;;;6038093;23;20387;-80
2023/06/01 09:58:19;;;;;;;10.20;8.35;;;26.10;48.50;;;;;;6036825;23;20391;-80
2023/06/01 10:00:50;;;;;;;9.90;8.02;;;26.10;49.60;;;;;;6036858;23;20391;-81
2023/06/01 10:03:22;;;;;;;9.87;8.53;;;25.90;49.40;;;;;;6036978;23;20379;-80
2023/06/01 10:05:50;;;;;;;8.73;7.47;;;25.90;49.10;;;;;;6062615;23;20390;-81
2023/06/01 10:08:18;;;;;;;9.75;8.75;;;25.90;49.40;;;;;;6060640;23;20383;-80
2023/06/01 10:10:48;;;;;;;10.68;9.57;;;26.00;48.40;;;;;;6061760;23;20387;-81
2023/06/01 10:13:15;;;;;;;10.43;9.27;;;26.10;47.90;;;;;;6060670;23;20382;-80
2023/06/01 10:15:42;;;;;;;9.85;8.85;;;26.10;47.90;;;;;;6061181;23;20443;-81
2023/06/01 10:18:09;;;;;;;10.70;9.00;;;26.00;47.90;;;;;;6059360;23;20734;-80
2023/06/01 10:20:38;;;;;;;12.17;8.87;;;26.00;48.00;;;;;;6060684;23;20458;-81
2023/06/01 10:23:06;;;;;;;9.63;7.15;;;26.10;50.00;;;;;;6061221;23;20401;-80
2023/06/01 10:25:49;;;;;;;9.48;7.40;;;26.30;49.90;;;;;;6063154;23;20401;-80
2023/06/01 10:28:18;;;;;;;8.93;8.02;;;26.60;49.10;;;;;;6060277;23;20705;-80
2023/06/01 10:30:46;;;;;;;9.43;8.40;;;26.70;46.60;;;;;;6035318;23;20387;-81
2023/06/01 10:33:13;;;;;;;8.85;7.90;;;26.80;46.30;;;;;;6059127;23;20394;-81
2023/06/01 10:35:47;;;;;;;8.82;7.65;;;26.50;46.70;;;;;;6038306;23;20487;-80
2023/06/01 10:38:14;;;;;;;8.73;7.30;;;26.50;46.90;;;;;;6037163;23;20383;-81
2023/06/01 10:40:42;;;;;;;8.43;7.63;;;26.40;48.50;;;;;;6037837;23;20864;-80
2023/06/01 10:43:40;;;;;;;8.83;6.90;;;26.50;46.30;;;;;;6036816;23;20394;-80
2023/06/01 10:46:35;;;;;;;7.20;5.68;;;26.40;47.60;;;;;;6036842;23;20442;-80
2023/06/01 10:49:04;;;;;;;10.53;7.40;;;26.50;47.60;;;;;;6036976;23;20502;-81
2023/06/01 10:51:31;;;;;;;6.38;5.40;;;26.80;47.00;;;;;;6037869;23;20443;-80
2023/06/01 10:54:27;;;;;;;8.45;6.53;;;27.00;48.40;;;;;;6037020;23;20379;-81
2023/06/01 10:57:39;;;;;;;7.03;6.32;;;27.20;47.60;;;;;;6037819;23;20379;-81
2023/06/01 11:00:28;;;;;;;7.45;5.40;;;27.20;47.80;;;;;;6034501;23;21114;-81
2023/06/01 11:03:02;;;;;;;9.38;7.07;;;27.30;47.40;;;;;;6036568;23;20795;-81
2023/06/01 11:05:40;;;;;;;7.90;5.90;;;27.30;46.20;;;;;;6037842;23;20383;-81
2023/06/01 11:08:29;;;;;;;7.95;6.13;;;27.40;46.10;;;;;;6036927;23;20375;-81
2023/06/01 11:11:02;;;;;;;6.80;4.75;;;27.50;47.20;;;;;;6037230;23;20386;-82
2023/06/01 11:13:33;;;;;;;7.00;5.70;;;27.80;46.40;;;;;;6037752;23;20383;-80
2023/06/01 11:18:58;;;;;;;7.13;6.33;;;28.10;46.30;;;;;;6062874;23;20406;-82
2023/06/01 11:21:30;;;;;;;7.07;5.77;;;28.00;44.50;;;;;;6059730;23;20379;-80
2023/06/01 11:23:59;;;;;;;8.93;6.93;;;27.90;45.30;;;;;;6062786;23;20383;-82
2023/06/01 11:26:30;;;;;;;7.00;6.37;;;27.90;46.90;;;;;;6036773;23;20378;-81
2023/06/01 11:29:11;;;;;;;10.63;7.90;;;27.90;46.60;;;;;;6040164;23;20718;-80
2023/06/01 11:31:40;;;;;;;8.82;7.03;;;27.90;46.30;;;;;;6063811;23;20830;-81
2023/06/01 11:34:09;;;;;;;8.97;7.50;;;27.80;46.80;;;;;;6039494;23;20379;-81
2023/06/01 11:36:37;;;;;;;8.50;7.35;;;27.80;46.20;;;;;;6038629;23;20394;-82
2023/06/01 11:39:08;;;;;;;8.20;7.40;;;27.80;46.50;;;;;;6039185;23;20386;-80
2023/06/01 11:41:50;;;;;;;7.67;5.93;;;27.60;45.70;;;;;;6041657;23;21118;-81
2023/06/01 11:44:17;;;;;;;7.33;6.43;;;27.70;48.50;;;;;;6039297;23;20714;-81
2023/06/01 11:46:55;;;;;;;8.85;7.25;;;27.70;46.00;;;;;;6062307;23;20382;-81
2023/06/01 11:49:23;;;;;;;8.53;6.40;;;27.70;46.70;;;;;;6038858;23;20483;-81
2023/06/01 11:51:51;;;;;;;14.30;8.05;;;28.00;46.20;;;;;;6063038;23;20390;-81
2023/06/01 11:54:23;;;;;;;6.95;6.05;;;28.10;44.40;;;;;;6039218;23;20391;-80
2023/06/01 11:56:51;;;;;;;9.63;7.57;;;28.20;46.00;;;;;;6038832;23;20378;-81
2023/06/01 11:59:22;;;;;;;8.35;6.90;;;28.20;44.10;;;;;;6064205;23;20887;-82
2023/06/01 12:01:51;;;;;;;7.63;5.90;;;28.20;44.40;;;;;;6038494;23;20687;-81
2023/06/01 12:04:21;;;;;;;7.90;6.70;;;28.10;44.50;;;;;;6063722;23;20487;-80
2023/06/01 12:06:49;;;;;;;7.07;4.97;;;28.00;44.30;;;;;;6063125;23;20390;-81
2023/06/01 12:09:16;;;;;;;5.68;5.10;;;28.00;45.60;;;;;;6039406;23;20387;-81
2023/06/01 12:11:44;;;;;;;6.30;5.50;;;28.30;45.30;;;;;;6038393;23;20856;-81
2023/06/01 12:14:12;;;;;;;8.40;6.00;;;28.50;44.40;;;;;;6062941;23;20399;-81
2023/06/01 12:17:02;;;;;;;7.50;5.45;;;28.80;43.70;;;;;;6038380;23;20460;-81
2023/06/01 12:19:31;;;;;;;6.82;5.65;;;28.90;45.30;;;;;;6061743;23;20383;-81
2023/06/01 12:21:59;;;;;;;6.05;4.88;;;29.00;42.50;;;;;;6063457;23;20379;-81
2023/06/01 12:24:35;;;;;;;8.00;4.63;;;28.90;42.80;;;;;;6038570;23;20387;-81
2023/06/01 12:27:12;;;;;;;7.82;5.75;;;28.90;43.20;;;;;;6061904;23;20379;-82
2023/06/01 12:29:44;;;;;;;6.63;5.57;;;29.00;43.50;;;;;;6037881;23;20396;-81
2023/06/01 12:32:13;;;;;;;5.75;5.00;;;28.90;42.60;;;;;;6039328;23;20405;-82
2023/06/01 12:34:47;;;;;;;6.68;5.72;;;28.90;43.60;;;;;;6038527;23;20451;-81
2023/06/01 12:37:18;;;;;;;7.40;4.93;;;28.90;43.30;;;;;;6038826;23;20389;-81
2023/06/01 12:39:53;;;;;;;7.65;5.78;;;28.90;43.10;;;;;;6038144;23;20410;-81
2023/06/01 12:42:38;;;;;;;8.15;6.13;;;29.00;42.30;;;;;;6039331;23;20388;-80
2023/06/01 12:45:08;;;;;;;6.28;5.03;;;29.10;42.30;;;;;;6062275;23;20679;-80
2023/06/01 12:47:39;;;;;;;5.72;5.10;;;29.20;42.20;;;;;;6063059;23;20873;-80
2023/06/01 12:50:11;;;;;;;5.70;5.10;;;29.50;43.00;;;;;;6062503;23;20450;-80
2023/06/01 12:52:42;;;;;;;6.93;5.45;;;29.60;42.10;;;;;;6039023;23;20386;-80
2023/06/01 12:55:09;;;;;;;6.20;4.78;;;29.40;41.40;;;;;;6038425;23;20385;-80
2023/06/01 12:57:37;;;;;;;5.65;4.95;;;29.30;41.80;;;;;;6063012;23;20486;-81
2023/06/01 13:00:06;;;;;;;4.75;4.22;;;29.40;41.30;;;;;;6037593;23;20391;-81
2023/06/01 13:02:34;;;;;;;6.00;5.40;;;29.60;41.10;;;;;;6038795;23;20383;-82
2023/06/01 13:05:04;;;;;;;6.68;5.20;;;29.80;42.00;;;;;;6061650;23;20407;-81
2023/06/01 13:07:31;;;;;;;5.90;4.38;;;30.00;41.00;;;;;;6063580;23;20421;-81
2023/06/01 13:10:01;;;;;;;5.88;4.20;;;30.10;40.60;;;;;;6037226;23;20458;-81
2023/06/01 13:12:28;;;;;;;5.68;4.70;;;29.90;41.50;;;;;;6038459;23;20409;-80
2023/06/01 13:14:56;;;;;;;6.78;4.70;;;30.00;40.70;;;;;;6062718;23;20442;-81
2023/06/01 13:17:24;;;;;;;5.05;3.80;;;30.00;40.60;;;;;;6062047;23;20753;-80
2023/06/01 13:19:52;;;;;;;4.50;4.03;;;30.10;40.50;;;;;;6060842;23;20387;-81
2023/06/01 13:22:22;;;;;;;5.55;4.13;;;30.20;39.50;;;;;;6062281;23;20786;-80
2023/06/01 13:24:49;;;;;;;4.10;3.70;;;30.20;38.60;;;;;;6062623;23;20386;-81
2023/06/01 13:27:31;;;;;;;6.22;4.13;;;30.20;38.60;;;;;;6062388;23;20391;-81
2023/06/01 13:29:58;;;;;;;4.65;3.58;;;30.00;38.80;;;;;;6037775;23;20394;-81
2023/06/01 13:32:25;;;;;;;3.97;3.58;;;29.90;39.00;;;;;;6033087;23;20385;-82